Time;durP1;ratioP1;P1;durP2;ratioP2;P2;SDS_P1;SDS_P2;PMS_P1;PMS_P2;Temp;Humidity;BMP_temperature;BMP_pressure;BME280_temperature;BME280_humidity;BME280_pressure;Samples;Min_cycle;Max_cycle;Signal;HPM_P1;HPM_P2
2022/01/18 00:00:08;;;;;;;11.17;8.23;;;9.10;93.80;;;;;;922231;155;27550;-79
2022/01/18 00:02:35;;;;;;;8.57;7.37;;;9.10;93.70;;;;;;920266;154;27337;-79
2022/01/18 00:05:01;;;;;;;10.50;7.60;;;9.10;93.70;;;;;;921520;154;27707;-79
2022/01/18 00:07:28;;;;;;;9.70;7.97;;;9.10;93.70;;;;;;919901;154;27359;-79
2022/01/18 00:09:54;;;;;;;11.80;7.97;;;9.10;93.70;;;;;;921285;154;27379;-78
2022/01/18 00:12:55;;;;;;;9.00;7.77;;;9.10;93.70;;;;;;921268;155;27368;-78
2022/01/18 00:18:05;;;;;;;11.67;8.23;;;9.00;93.70;;;;;;922878;152;27361;-79
2022/01/18 00:20:34;;;;;;;10.37;7.83;;;9.00;93.80;;;;;;919930;155;27458;-79
2022/01/18 00:22:49;;;;;;;11.97;8.03;;;9.00;93.80;;;;;;916354;152;27392;-79
2022/01/18 00:25:17;;;;;;;9.27;7.07;;;9.00;93.80;;;;;;918911;155;27389;-78
2022/01/18 00:27:43;;;;;;;10.37;7.93;;;9.00;94.00;;;;;;916204;155;27366;-78
2022/01/18 00:33:10;;;;;;;8.20;6.53;;;9.00;94.10;;;;;;919169;155;27424;-79
2022/01/18 00:35:21;;;;;;;8.07;7.17;;;9.00;94.10;;;;;;916443;152;27493;-79
2022/01/18 00:37:55;;;;;;;9.73;6.97;;;9.00;94.10;;;;;;917473;155;27335;-78
2022/01/18 00:40:19;;;;;;;8.17;7.00;;;9.00;94.10;;;;;;918867;153;28524;-78
2022/01/18 00:42:46;;;;;;;9.83;7.33;;;9.00;94.20;;;;;;916675;155;27315;-77
2022/01/18 00:45:12;;;;;;;6.93;6.10;;;9.00;94.10;;;;;;919030;154;27316;-78
2022/01/18 00:47:39;;;;;;;8.40;6.13;;;9.00;94.20;;;;;;918758;152;27338;-80
2022/01/18 00:50:06;;;;;;;7.83;6.53;;;9.00;94.10;;;;;;917558;154;27390;-79
2022/01/18 00:52:36;;;;;;;7.87;6.40;;;9.10;94.20;;;;;;918238;155;27349;-81
2022/01/18 00:55:01;;;;;;;8.60;6.47;;;9.10;94.20;;;;;;920666;154;27350;-79
2022/01/18 00:57:26;;;;;;;7.17;6.03;;;9.10;94.10;;;;;;915953;155;27469;-78
2022/01/18 00:59:53;;;;;;;9.77;6.53;;;9.10;94.10;;;;;;917086;155;27443;-79
2022/01/18 01:02:20;;;;;;;7.30;5.87;;;9.10;94.10;;;;;;918747;155;27427;-80
2022/01/18 01:04:49;;;;;;;8.43;5.93;;;9.10;93.80;;;;;;918087;155;27444;-79
2022/01/18 01:07:13;;;;;;;7.50;5.63;;;9.10;94.10;;;;;;919037;152;27391;-79
2022/01/18 01:09:39;;;;;;;6.60;5.67;;;9.10;94.10;;;;;;916745;155;27361;-79
2022/01/18 01:12:06;;;;;;;8.40;5.63;;;9.20;94.10;;;;;;918638;155;27346;-79
2022/01/18 01:14:34;;;;;;;8.80;6.50;;;9.20;94.00;;;;;;917586;155;27404;-78
2022/01/18 01:17:03;;;;;;;9.13;6.40;;;9.20;94.00;;;;;;918201;155;27432;-79
2022/01/18 01:19:46;;;;;;;6.70;5.43;;;9.20;93.90;;;;;;919205;152;27493;-78
2022/01/18 01:43:47;;;;;;;7.37;4.80;;;9.20;93.60;;;;;;917479;155;27353;-79
2022/01/18 01:45:59;;;;;;;7.77;4.20;;;9.10;93.50;;;;;;919011;152;27497;-79
2022/01/18 01:48:24;;;;;;;5.70;3.93;;;9.10;93.50;;;;;;919322;154;27381;-78
2022/01/18 01:50:54;;;;;;;4.70;3.57;;;9.10;93.50;;;;;;919120;155;27366;-79
2022/01/18 01:53:17;;;;;;;4.10;3.57;;;9.20;93.40;;;;;;917246;154;27959;-79
2022/01/18 01:55:44;;;;;;;3.70;3.23;;;9.20;93.40;;;;;;917803;154;27459;-79
2022/01/18 01:58:10;;;;;;;5.40;3.23;;;9.10;93.30;;;;;;917397;154;27389;-79
2022/01/18 02:00:46;;;;;;;4.70;3.10;;;9.20;93.40;;;;;;918221;155;27374;-78
2022/01/18 02:03:15;;;;;;;5.57;2.73;;;9.20;93.40;;;;;;918108;155;27414;-79
2022/01/18 02:05:42;;;;;;;3.90;2.73;;;9.20;93.30;;;;;;917417;155;27364;-79
2022/01/18 02:08:08;;;;;;;4.43;3.63;;;9.20;93.30;;;;;;919418;155;27436;-79
2022/01/18 02:10:35;;;;;;;5.33;2.60;;;9.20;93.20;;;;;;917693;155;27358;-79
2022/01/18 02:13:01;;;;;;;4.70;2.40;;;9.20;93.10;;;;;;918445;154;27373;-78
2022/01/18 02:15:28;;;;;;;4.63;2.23;;;9.20;93.00;;;;;;917709;155;27413;-79
2022/01/18 02:23:24;;;;;;;1.90;1.50;;;9.30;92.50;;;;;;923093;152;27455;-79
2022/01/18 02:25:51;;;;;;;4.53;1.80;;;9.30;92.30;;;;;;923985;154;27458;-78
2022/01/18 02:28:17;;;;;;;4.03;1.93;;;9.30;92.20;;;;;;925691;154;27462;-78
2022/01/18 02:30:45;;;;;;;4.57;2.17;;;9.30;92.10;;;;;;923569;154;27405;-79
2022/01/18 02:33:10;;;;;;;3.57;1.87;;;9.30;92.10;;;;;;922144;154;27435;-79
2022/01/18 02:35:37;;;;;;;3.23;1.70;;;9.30;92.10;;;;;;923859;151;27464;-78
2022/01/18 02:38:04;;;;;;;3.33;1.73;;;9.40;91.90;;;;;;922483;154;27366;-78
2022/01/18 02:40:30;;;;;;;2.80;2.13;;;9.40;91.90;;;;;;923944;151;27361;-78
2022/01/18 02:42:59;;;;;;;3.47;1.90;;;9.40;91.80;;;;;;922065;154;27382;-80
2022/01/18 02:45:23;;;;;;;3.83;1.90;;;9.40;91.80;;;;;;922997;154;27448;-80
2022/01/18 02:47:50;;;;;;;3.70;2.20;;;9.40;91.70;;;;;;925348;154;27381;-80
2022/01/18 02:50:16;;;;;;;3.37;2.63;;;9.40;91.60;;;;;;925409;151;27353;-79
2022/01/18 02:52:43;;;;;;;4.87;3.30;;;9.40;91.60;;;;;;923717;154;27401;-79
2022/01/18 02:55:10;;;;;;;2.93;2.63;;;9.40;91.60;;;;;;924915;152;28091;-79
2022/01/18 02:58:04;;;;;;;7.47;3.13;;;9.40;91.70;;;;;;924044;154;27342;-78
2022/01/18 03:00:32;;;;;;;6.90;3.47;;;9.40;91.80;;;;;;923409;154;27885;-79
2022/01/18 03:03:16;;;;;;;5.50;3.30;;;9.40;91.80;;;;;;925415;154;27346;-79
2022/01/18 03:05:38;;;;;;;3.63;2.93;;;9.40;91.90;;;;;;922068;154;27376;-79
2022/01/18 03:08:04;;;;;;;3.27;2.97;;;9.40;91.90;;;;;;921170;153;27393;-79
2022/01/18 03:10:31;;;;;;;6.07;3.40;;;9.40;92.00;;;;;;924693;154;27361;-79
2022/01/18 03:12:57;;;;;;;3.63;2.83;;;9.30;92.00;;;;;;924075;152;27975;-79
2022/01/18 03:15:24;;;;;;;4.67;3.07;;;9.30;92.00;;;;;;925420;154;27381;-79
2022/01/18 03:17:51;;;;;;;4.27;2.63;;;9.30;91.90;;;;;;925299;151;27409;-79
2022/01/18 03:20:19;;;;;;;3.67;3.03;;;9.30;91.90;;;;;;925313;154;27373;-78
2022/01/18 03:22:45;;;;;;;3.90;2.97;;;9.30;92.00;;;;;;924644;151;27786;-79
2022/01/18 03:30:27;;;;;;;5.37;2.47;;;9.20;92.10;;;;;;919802;155;27459;-79
2022/01/18 03:32:54;;;;;;;4.47;2.43;;;9.30;92.20;;;;;;917703;155;27271;-79
2022/01/18 03:35:22;;;;;;;2.67;2.33;;;9.30;92.30;;;;;;917083;152;27367;-79
2022/01/18 03:37:47;;;;;;;4.17;2.30;;;9.20;92.20;;;;;;916814;154;27456;-78
2022/01/18 03:40:13;;;;;;;2.53;2.30;;;9.30;92.30;;;;;;918359;155;27324;-79
2022/01/18 03:42:41;;;;;;;2.67;2.17;;;9.30;92.20;;;;;;917291;155;27476;-79
2022/01/18 03:45:07;;;;;;;2.63;2.03;;;9.20;92.10;;;;;;917287;155;27400;-79
2022/01/18 03:47:33;;;;;;;2.00;1.60;;;9.20;92.00;;;;;;918852;152;27319;-78
2022/01/18 03:50:03;;;;;;;3.70;1.53;;;9.20;91.90;;;;;;919301;154;27461;-78
2022/01/18 03:52:29;;;;;;;2.43;1.53;;;9.20;91.90;;;;;;920204;155;27480;-79
2022/01/18 03:54:56;;;;;;;2.57;1.63;;;9.20;91.90;;;;;;917797;155;27950;-80
2022/01/18 03:57:22;;;;;;;2.77;1.57;;;9.20;91.40;;;;;;918061;155;27389;-80
2022/01/18 03:59:49;;;;;;;2.83;1.63;;;9.20;91.80;;;;;;918724;155;27388;-79
2022/01/18 04:02:15;;;;;;;2.90;1.77;;;9.20;91.60;;;;;;917040;155;27381;-78
2022/01/18 04:04:45;;;;;;;2.53;1.90;;;9.20;91.60;;;;;;918217;155;27759;-78
2022/01/18 04:07:12;;;;;;;2.40;1.90;;;9.20;91.60;;;;;;917503;154;27981;-79
2022/01/18 04:09:38;;;;;;;2.80;1.93;;;9.20;91.60;;;;;;919617;154;27358;-78
2022/01/18 04:12:05;;;;;;;2.87;1.70;;;9.30;91.60;;;;;;917924;153;27266;-78
2022/01/18 04:14:31;;;;;;;2.80;1.67;;;9.30;91.70;;;;;;919091;153;27389;-78
2022/01/18 04:17:05;;;;;;;2.07;1.60;;;9.30;91.70;;;;;;918428;152;27415;-78
2022/01/18 04:27:31;;;;;;;4.30;2.20;;;9.30;91.60;;;;;;918979;155;27352;-79
2022/01/18 04:29:55;;;;;;;5.17;3.00;;;9.30;91.60;;;;;;888168;161;27477;-79
2022/01/18 04:32:22;;;;;;;7.30;2.73;;;9.20;91.50;;;;;;916479;155;27458;-79
2022/01/18 04:34:48;;;;;;;4.73;2.63;;;9.20;91.50;;;;;;918748;155;27396;-79
2022/01/18 04:37:15;;;;;;;4.00;2.30;;;9.20;91.50;;;;;;918249;155;27741;-79
2022/01/18 04:39:43;;;;;;;3.80;2.03;;;9.20;91.50;;;;;;919088;155;27320;-78
2022/01/18 04:42:33;;;;;;;3.07;2.40;;;9.20;91.20;;;;;;920033;154;27480;-79
2022/01/18 04:49:55;;;;;;;4.27;2.70;;;9.20;91.60;;;;;;918885;155;27500;-79
2022/01/18 04:52:21;;;;;;;5.73;2.57;;;9.20;91.60;;;;;;917877;155;27411;-79
2022/01/18 04:54:58;;;;;;;3.67;2.30;;;9.20;91.60;;;;;;917949;155;27375;-79
2022/01/18 04:59:41;;;;;;;2.03;1.80;;;9.20;91.70;;;;;;917773;155;27509;-79
2022/01/18 05:02:08;;;;;;;2.37;1.87;;;9.30;91.60;;;;;;919861;155;27457;-79
2022/01/18 05:04:34;;;;;;;2.57;1.90;;;9.30;91.60;;;;;;917129;155;27363;-79
2022/01/18 05:07:07;;;;;;;2.57;1.83;;;9.30;91.60;;;;;;918383;155;27385;-78
2022/01/18 05:09:30;;;;;;;2.03;1.57;;;9.20;91.50;;;;;;919654;154;27385;-79
2022/01/18 05:12:05;;;;;;;3.27;1.90;;;9.30;91.50;;;;;;919022;155;29487;-78
2022/01/18 05:14:29;;;;;;;3.20;1.30;;;9.30;91.30;;;;;;917812;154;27473;-79
2022/01/18 05:17:00;;;;;;;4.60;1.93;;;9.30;91.20;;;;;;918079;152;27482;-79
2022/01/18 05:19:37;;;;;;;5.00;2.20;;;9.30;91.10;;;;;;918409;152;27327;-79
2022/01/18 05:24:26;;;;;;;2.93;1.40;;;9.30;90.90;;;;;;919202;152;27442;-79
2022/01/18 05:26:53;;;;;;;2.23;1.87;;;9.30;90.90;;;;;;917994;154;27848;-79
2022/01/18 05:29:20;;;;;;;2.70;1.83;;;9.30;91.20;;;;;;918128;155;27374;-79
2022/01/18 05:31:46;;;;;;;2.90;1.43;;;9.30;90.80;;;;;;917863;155;27868;-79
2022/01/18 05:34:13;;;;;;;2.87;1.43;;;9.30;90.70;;;;;;918935;152;27385;-79
2022/01/18 05:36:39;;;;;;;3.20;1.50;;;9.40;90.60;;;;;;917998;154;27300;-79
2022/01/18 05:39:06;;;;;;;3.43;1.43;;;9.30;90.50;;;;;;916990;155;28705;-79
2022/01/18 05:41:32;;;;;;;5.00;1.40;;;9.30;90.50;;;;;;918030;155;27441;-79
2022/01/18 05:43:59;;;;;;;3.57;1.80;;;9.40;90.40;;;;;;917393;155;28147;-79
2022/01/18 05:46:26;;;;;;;5.33;2.20;;;9.40;90.30;;;;;;918216;152;27507;-78
2022/01/18 05:48:52;;;;;;;3.60;2.17;;;9.40;90.30;;;;;;919076;155;27362;-79
2022/01/18 05:51:19;;;;;;;3.07;1.90;;;9.40;90.30;;;;;;918143;155;27416;-79
2022/01/18 05:53:45;;;;;;;3.40;2.20;;;9.40;90.20;;;;;;918602;155;27361;-78
2022/01/18 05:56:12;;;;;;;3.50;2.20;;;9.40;90.10;;;;;;917339;155;27455;-78
2022/01/18 05:58:39;;;;;;;5.50;2.00;;;9.40;90.10;;;;;;918324;154;27408;-78
2022/01/18 06:01:05;;;;;;;2.33;1.77;;;9.40;90.10;;;;;;888409;160;27466;-79
2022/01/18 06:03:49;;;;;;;2.67;1.73;;;9.40;90.10;;;;;;918193;154;27365;-78
2022/01/18 06:08:43;;;;;;;4.33;1.87;;;9.40;90.20;;;;;;919429;155;27395;-78
2022/01/18 06:11:10;;;;;;;2.13;1.60;;;9.40;90.10;;;;;;918033;155;27374;-79
2022/01/18 06:13:36;;;;;;;2.60;1.37;;;9.40;90.00;;;;;;918934;155;27412;-78
2022/01/18 06:16:03;;;;;;;3.00;1.73;;;9.40;90.00;;;;;;919463;154;27373;-79
2022/01/18 06:18:29;;;;;;;4.30;1.77;;;9.40;90.00;;;;;;918848;152;28075;-79
2022/01/18 06:20:58;;;;;;;4.47;1.83;;;9.40;89.80;;;;;;916590;155;27362;-78
2022/01/18 06:23:23;;;;;;;2.00;1.73;;;9.40;89.60;;;;;;917827;152;27282;-78
2022/01/18 06:25:53;;;;;;;2.13;1.37;;;9.40;89.50;;;;;;918603;155;27464;-78
2022/01/18 06:28:19;;;;;;;3.13;1.80;;;9.40;89.50;;;;;;917600;155;27334;-78
2022/01/18 06:30:45;;;;;;;3.47;1.70;;;9.40;89.30;;;;;;917018;155;27442;-78
2022/01/18 06:33:12;;;;;;;2.80;1.57;;;9.40;89.10;;;;;;918267;155;27509;-78
2022/01/18 06:35:39;;;;;;;4.03;1.80;;;9.40;89.00;;;;;;918552;152;27381;-78
2022/01/18 06:38:08;;;;;;;2.23;1.63;;;9.50;89.10;;;;;;917535;155;27363;-78
2022/01/18 06:40:32;;;;;;;2.33;2.10;;;9.50;89.30;;;;;;918797;154;27707;-78
2022/01/18 06:42:58;;;;;;;1.43;1.30;;;9.40;89.40;;;;;;919024;155;27837;-78
2022/01/18 06:45:25;;;;;;;2.57;1.40;;;9.50;88.60;;;;;;917918;155;27353;-78
2022/01/18 06:47:52;;;;;;;2.23;1.30;;;9.50;89.30;;;;;;919680;152;27370;-78
2022/01/18 06:50:18;;;;;;;2.77;1.27;;;9.50;89.20;;;;;;916959;155;27369;-78
2022/01/18 06:52:45;;;;;;;2.33;1.30;;;9.50;89.20;;;;;;918154;155;27342;-79
2022/01/18 06:55:12;;;;;;;3.27;1.57;;;9.50;89.20;;;;;;919082;155;27455;-78
2022/01/18 06:57:38;;;;;;;4.37;2.00;;;9.50;89.30;;;;;;919006;155;27271;-79
2022/01/18 07:00:08;;;;;;;3.27;2.30;;;9.50;89.20;;;;;;919553;155;27476;-78
2022/01/18 07:02:34;;;;;;;3.03;2.03;;;9.50;89.10;;;;;;917332;155;27516;-79
2022/01/18 07:05:01;;;;;;;3.97;2.33;;;9.50;89.00;;;;;;917184;155;27783;-79
2022/01/18 07:07:27;;;;;;;4.07;2.20;;;9.40;89.60;;;;;;918425;155;27370;-79
2022/01/18 07:09:54;;;;;;;4.87;2.40;;;9.40;89.00;;;;;;918081;155;27366;-78
2022/01/18 07:12:22;;;;;;;3.80;2.60;;;9.40;89.20;;;;;;916543;155;27391;-79
2022/01/18 07:14:47;;;;;;;2.90;1.70;;;9.30;89.50;;;;;;920381;154;27430;-79
2022/01/18 07:17:14;;;;;;;3.50;2.03;;;9.30;89.80;;;;;;921795;155;27474;-79
2022/01/18 07:19:40;;;;;;;2.50;2.00;;;9.20;90.00;;;;;;920917;152;27381;-79
2022/01/18 07:22:07;;;;;;;3.43;2.20;;;9.20;90.20;;;;;;919927;155;28056;-79
2022/01/18 07:24:43;;;;;;;7.47;2.83;;;9.20;90.30;;;;;;918902;152;28652;-79
2022/01/18 07:27:06;;;;;;;4.23;2.30;;;9.20;90.30;;;;;;916269;154;27558;-78
2022/01/18 07:29:32;;;;;;;2.13;1.93;;;9.20;90.40;;;;;;918303;154;27346;-78
2022/01/18 07:31:59;;;;;;;4.00;2.20;;;9.20;90.40;;;;;;917718;154;27303;-79
2022/01/18 07:34:26;;;;;;;2.93;1.80;;;9.10;90.50;;;;;;919537;152;27355;-78
2022/01/18 07:36:52;;;;;;;1.97;1.73;;;9.20;90.60;;;;;;918133;155;27363;-79
2022/01/18 07:39:19;;;;;;;3.77;2.20;;;9.10;90.60;;;;;;918993;155;28027;-79
2022/01/18 07:41:45;;;;;;;4.53;2.17;;;9.10;90.60;;;;;;917685;155;27399;-79
2022/01/18 07:44:14;;;;;;;4.53;1.93;;;9.20;90.60;;;;;;917422;155;27403;-78
2022/01/18 07:46:41;;;;;;;2.50;1.50;;;9.10;90.50;;;;;;917227;152;27442;-79
2022/01/18 07:49:10;;;;;;;2.13;1.40;;;9.10;90.60;;;;;;916894;155;27445;-78
2022/01/18 07:51:37;;;;;;;4.93;1.57;;;9.10;90.50;;;;;;917287;155;29550;-79
2022/01/18 07:54:03;;;;;;;3.97;1.40;;;9.10;90.30;;;;;;917940;155;27392;-78
2022/01/18 07:56:30;;;;;;;2.63;1.60;;;9.10;90.60;;;;;;919057;155;27384;-79
2022/01/18 07:58:57;;;;;;;4.40;2.10;;;9.10;90.70;;;;;;916982;155;27342;-79
2022/01/18 08:01:23;;;;;;;4.33;1.70;;;9.10;90.80;;;;;;919995;154;27385;-78
2022/01/18 08:03:50;;;;;;;6.07;1.70;;;9.10;90.90;;;;;;916836;155;27382;-78
2022/01/18 08:06:19;;;;;;;1.30;1.20;;;9.10;91.00;;;;;;916774;155;27360;-79
2022/01/18 08:08:46;;;;;;;2.00;1.40;;;9.20;91.00;;;;;;917646;155;27441;-79
2022/01/18 08:11:12;;;;;;;1.67;1.13;;;9.20;91.00;;;;;;918977;155;27387;-79
2022/01/18 08:13:41;;;;;;;4.87;1.67;;;9.20;91.40;;;;;;917026;155;27471;-79
2022/01/18 08:18:50;;;;;;;2.07;1.33;;;9.30;91.20;;;;;;865615;162;28861;-79
2022/01/18 08:21:17;;;;;;;1.67;1.30;;;9.30;91.30;;;;;;864990;164;27891;-78
2022/01/18 08:23:44;;;;;;;2.37;1.60;;;9.40;91.30;;;;;;881061;154;27829;-78
2022/01/18 08:26:10;;;;;;;1.73;1.23;;;9.40;91.30;;;;;;918097;155;27275;-78
2022/01/18 08:28:37;;;;;;;4.80;1.87;;;9.50;91.20;;;;;;926379;154;27469;-78
2022/01/18 08:31:04;;;;;;;1.80;1.70;;;9.50;91.10;;;;;;926699;154;27511;-78
2022/01/18 08:33:31;;;;;;;4.13;2.50;;;9.60;91.00;;;;;;925736;153;27403;-78
2022/01/18 08:35:59;;;;;;;8.37;4.30;;;9.60;90.90;;;;;;925507;151;27872;-78
2022/01/18 08:38:23;;;;;;;7.07;4.43;;;9.70;91.30;;;;;;924123;151;27294;-78
2022/01/18 08:40:50;;;;;;;4.80;4.00;;;9.70;90.90;;;;;;926108;154;27478;-78
2022/01/18 08:43:19;;;;;;;8.47;4.60;;;9.70;91.30;;;;;;925178;153;27465;-78
2022/01/18 08:45:45;;;;;;;10.20;5.40;;;9.80;91.00;;;;;;925762;154;27295;-78
2022/01/18 08:48:12;;;;;;;4.27;3.80;;;9.80;91.10;;;;;;926076;151;27846;-77
2022/01/18 08:50:39;;;;;;;6.60;4.07;;;9.90;91.10;;;;;;926153;154;27416;-78
2022/01/18 08:53:05;;;;;;;4.63;3.27;;;9.90;91.00;;;;;;927658;153;27380;-77
2022/01/18 08:55:34;;;;;;;5.70;3.87;;;10.00;90.90;;;;;;926624;152;27457;-78
2022/01/18 08:57:58;;;;;;;4.27;3.87;;;10.00;90.80;;;;;;927387;152;27688;-78
2022/01/18 09:00:25;;;;;;;4.43;3.47;;;10.00;90.80;;;;;;927869;151;27390;-78
2022/01/18 09:02:52;;;;;;;5.00;3.63;;;10.00;90.80;;;;;;923615;153;27372;-78
2022/01/18 09:05:22;;;;;;;4.93;3.93;;;10.10;90.80;;;;;;925913;152;27472;-78
2022/01/18 09:07:45;;;;;;;4.73;3.73;;;10.10;90.80;;;;;;927455;154;27466;-77
2022/01/18 09:10:12;;;;;;;4.63;3.53;;;10.10;90.80;;;;;;925516;154;27345;-78
2022/01/18 09:12:38;;;;;;;5.37;3.60;;;10.10;91.00;;;;;;925904;154;27329;-78
2022/01/18 09:15:06;;;;;;;4.03;3.50;;;10.20;91.10;;;;;;925177;154;27390;-78
2022/01/18 09:17:31;;;;;;;3.80;2.93;;;10.20;91.20;;;;;;924082;154;27336;-78
2022/01/18 09:20:05;;;;;;;4.00;3.10;;;10.30;91.60;;;;;;927777;154;27590;-78
2022/01/18 09:22:27;;;;;;;4.80;3.03;;;10.30;91.30;;;;;;924351;152;27386;-78
2022/01/18 09:24:53;;;;;;;3.90;3.10;;;10.40;91.40;;;;;;927021;151;27366;-78
2022/01/18 09:27:20;;;;;;;5.07;2.80;;;10.50;91.40;;;;;;922357;154;27826;-78
2022/01/18 09:29:47;;;;;;;5.70;3.37;;;10.60;91.50;;;;;;922648;152;27406;-78
2022/01/18 09:32:13;;;;;;;8.13;3.97;;;10.70;91.50;;;;;;923559;155;27383;-78
2022/01/18 09:34:40;;;;;;;6.10;3.80;;;10.80;91.60;;;;;;922265;151;27359;-78
2022/01/18 09:37:06;;;;;;;5.60;4.30;;;10.80;91.50;;;;;;923226;155;27278;-78
2022/01/18 09:39:33;;;;;;;6.73;4.60;;;11.00;91.50;;;;;;921446;152;27332;-78
2022/01/18 09:42:02;;;;;;;5.27;4.33;;;11.10;91.40;;;;;;922511;155;27330;-78
2022/01/18 09:44:26;;;;;;;5.47;4.13;;;11.20;91.30;;;;;;922190;154;27373;-78
2022/01/18 09:46:54;;;;;;;3.93;3.40;;;11.20;91.10;;;;;;923338;151;27374;-78
2022/01/18 09:49:19;;;;;;;3.90;3.07;;;11.30;90.90;;;;;;922782;154;27344;-78
2022/01/18 09:51:46;;;;;;;7.87;3.30;;;11.40;90.90;;;;;;921758;155;27431;-78
2022/01/18 09:54:13;;;;;;;4.60;3.23;;;11.50;90.70;;;;;;922131;154;27359;-78
2022/01/18 09:56:39;;;;;;;6.57;3.10;;;11.50;90.50;;;;;;922092;155;27401;-78
2022/01/18 09:59:06;;;;;;;3.37;2.73;;;11.60;90.40;;;;;;923642;152;27361;-78
2022/01/18 10:01:32;;;;;;;3.40;2.67;;;11.60;90.20;;;;;;921618;152;27480;-78
2022/01/18 10:04:17;;;;;;;4.07;2.87;;;11.70;90.20;;;;;;921941;154;27696;-78
2022/01/18 10:06:43;;;;;;;3.83;2.33;;;11.80;90.10;;;;;;918742;151;27303;-78
2022/01/18 10:09:13;;;;;;;2.77;2.57;;;11.80;90.00;;;;;;923131;154;27373;-78
2022/01/18 10:11:58;;;;;;;3.87;2.43;;;11.90;89.90;;;;;;923300;155;27393;-78
2022/01/18 10:14:24;;;;;;;2.67;2.00;;;11.90;89.40;;;;;;923428;153;27322;-78
2022/01/18 10:16:54;;;;;;;1.90;1.70;;;12.00;88.90;;;;;;921297;153;27427;-78
2022/01/18 10:19:30;;;;;;;2.13;1.63;;;12.10;88.30;;;;;;923389;151;27290;-79
2022/01/18 10:21:56;;;;;;;3.27;1.90;;;12.20;87.90;;;;;;921906;155;28055;-78
2022/01/18 10:24:25;;;;;;;2.43;1.83;;;12.20;87.80;;;;;;922119;151;27489;-78
2022/01/18 10:26:49;;;;;;;2.33;1.73;;;12.30;87.50;;;;;;921458;151;27462;-78
2022/01/18 10:29:16;;;;;;;2.97;2.00;;;12.40;86.90;;;;;;920574;154;27341;-78
2022/01/18 10:37:10;;;;;;;2.43;2.10;;;12.60;85.90;;;;;;923164;152;27352;-79
2022/01/18 10:39:37;;;;;;;4.23;2.00;;;12.70;85.80;;;;;;922265;154;27429;-78
2022/01/18 10:42:13;;;;;;;2.03;1.80;;;12.80;85.20;;;;;;920868;152;27354;-78
2022/01/18 10:44:39;;;;;;;2.13;1.33;;;12.80;84.50;;;;;;920864;154;28205;-78
2022/01/18 10:47:06;;;;;;;0.97;0.97;;;12.90;83.90;;;;;;922538;151;27361;-78
2022/01/18 10:49:40;;;;;;;2.43;1.60;;;12.90;83.10;;;;;;920229;155;28014;-78
2022/01/18 10:52:02;;;;;;;2.20;2.00;;;12.90;82.80;;;;;;919456;155;27459;-80
2022/01/18 10:54:43;;;;;;;1.90;1.80;;;12.90;82.60;;;;;;918432;155;27371;-79
2022/01/18 10:57:11;;;;;;;2.83;2.13;;;13.00;83.50;;;;;;920852;155;27368;-80
2022/01/18 10:59:38;;;;;;;2.20;2.00;;;13.00;82.80;;;;;;922072;155;27483;-79
2022/01/18 11:02:05;;;;;;;1.80;1.67;;;13.00;83.10;;;;;;921390;151;27322;-80
2022/01/18 11:04:32;;;;;;;1.97;1.60;;;13.00;82.30;;;;;;921582;151;27329;-80
2022/01/18 11:06:59;;;;;;;1.43;0.90;;;13.10;82.30;;;;;;922211;155;27329;-80
2022/01/18 11:09:25;;;;;;;2.17;1.30;;;13.10;82.10;;;;;;923237;153;27517;-80
2022/01/18 11:11:52;;;;;;;1.83;1.00;;;13.10;81.80;;;;;;922110;153;27304;-80
2022/01/18 11:14:20;;;;;;;1.60;1.13;;;13.20;81.40;;;;;;921806;154;27484;-79
2022/01/18 11:16:45;;;;;;;1.83;1.00;;;13.20;81.20;;;;;;922996;154;27357;-79
2022/01/18 11:21:50;;;;;;;1.20;0.90;;;13.20;80.70;;;;;;921288;155;28008;-80
2022/01/18 11:24:16;;;;;;;0.87;0.83;;;13.30;80.60;;;;;;922183;152;27384;-80
2022/01/18 11:26:44;;;;;;;0.97;0.80;;;13.30;80.30;;;;;;922717;154;27331;-80
2022/01/18 11:29:10;;;;;;;2.13;1.53;;;13.30;80.30;;;;;;922438;151;27409;-79
2022/01/18 11:31:36;;;;;;;1.10;0.77;;;13.30;80.10;;;;;;924526;154;27351;-80
2022/01/18 11:34:03;;;;;;;1.20;1.00;;;13.30;79.90;;;;;;924158;151;27365;-79
2022/01/18 11:36:29;;;;;;;1.07;0.90;;;13.30;79.70;;;;;;923531;151;27490;-80
2022/01/18 11:38:56;;;;;;;0.93;0.93;;;13.30;79.50;;;;;;923886;153;27385;-80
2022/01/18 11:41:25;;;;;;;1.50;1.20;;;13.30;79.00;;;;;;923287;153;27297;-80
2022/01/18 11:43:52;;;;;;;3.00;1.20;;;13.20;78.50;;;;;;922686;152;27364;-80
2022/01/18 11:46:27;;;;;;;1.47;1.20;;;13.20;78.30;;;;;;925225;151;27378;-79
2022/01/18 11:49:15;;;;;;;2.00;1.43;;;13.20;78.40;;;;;;924445;152;27462;-80
2022/01/18 11:51:53;;;;;;;4.03;2.20;;;13.10;78.60;;;;;;923004;154;27367;-79
2022/01/18 11:54:38;;;;;;;2.13;1.80;;;13.10;78.70;;;;;;923990;154;27357;-78
2022/01/18 11:57:01;;;;;;;1.50;1.40;;;13.10;78.50;;;;;;922181;154;27476;-79
2022/01/18 11:59:37;;;;;;;1.50;1.40;;;13.00;78.30;;;;;;923602;151;27331;-79
2022/01/18 12:02:06;;;;;;;1.87;1.23;;;12.90;78.40;;;;;;924445;154;27345;-78
2022/01/18 12:04:40;;;;;;;1.50;1.40;;;12.90;78.10;;;;;;923285;154;27430;-78
2022/01/18 12:07:05;;;;;;;1.87;1.30;;;12.80;78.10;;;;;;924221;154;27514;-78
2022/01/18 12:09:38;;;;;;;2.10;1.30;;;12.80;78.20;;;;;;925274;154;27492;-77
2022/01/18 12:12:46;;;;;;;1.00;0.90;;;12.80;78.30;;;;;;924967;154;27909;-79
2022/01/18 12:15:19;;;;;;;1.67;1.40;;;12.70;78.40;;;;;;924823;154;27428;-78
2022/01/18 12:17:46;;;;;;;2.53;1.33;;;12.70;78.50;;;;;;924012;154;27440;-79
2022/01/18 12:20:33;;;;;;;1.00;0.90;;;12.60;78.40;;;;;;924507;151;27455;-78
2022/01/18 12:23:05;;;;;;;0.97;0.90;;;12.60;78.20;;;;;;909469;151;27895;-78
2022/01/18 12:25:34;;;;;;;1.30;1.20;;;12.60;78.30;;;;;;924627;154;27261;-79
2022/01/18 12:28:17;;;;;;;2.00;1.73;;;12.50;78.20;;;;;;923949;154;27334;-78
2022/01/18 12:31:04;;;;;;;1.50;1.40;;;12.50;78.50;;;;;;920081;154;27870;-79
2022/01/18 12:33:19;;;;;;;0.90;0.90;;;12.50;78.60;;;;;;916812;154;27448;-78
2022/01/18 12:35:46;;;;;;;2.10;0.93;;;12.50;78.30;;;;;;919020;152;27393;-79
2022/01/18 12:38:24;;;;;;;1.20;1.03;;;12.50;78.30;;;;;;917423;155;27387;-79
2022/01/18 12:40:53;;;;;;;1.63;0.80;;;12.50;78.30;;;;;;916271;155;27267;-79
2022/01/18 12:45:45;;;;;;;0.60;0.60;;;12.50;78.40;;;;;;918578;155;27461;-79
2022/01/18 12:48:11;;;;;;;1.20;1.10;;;12.50;78.40;;;;;;917219;152;27475;-79
2022/01/18 12:50:43;;;;;;;1.47;0.87;;;12.60;78.30;;;;;;917492;155;27338;-79
2022/01/18 12:53:10;;;;;;;0.77;0.60;;;12.60;77.80;;;;;;916769;154;27495;-78
2022/01/18 12:55:46;;;;;;;2.67;0.77;;;12.60;77.60;;;;;;917659;155;27354;-79
2022/01/18 12:58:12;;;;;;;0.67;0.50;;;12.60;77.60;;;;;;917685;155;27374;-79
2022/01/18 13:00:48;;;;;;;0.47;0.47;;;12.70;77.60;;;;;;918334;154;27374;-79
2022/01/18 13:03:20;;;;;;;0.70;0.57;;;12.70;77.50;;;;;;919839;154;28461;-79
2022/01/18 13:05:47;;;;;;;1.47;0.80;;;12.80;77.60;;;;;;918198;155;27374;-78
2022/01/18 13:08:13;;;;;;;1.00;0.80;;;12.80;77.50;;;;;;917553;155;27355;-78
2022/01/18 13:10:43;;;;;;;0.70;0.67;;;12.80;77.30;;;;;;918667;155;27388;-78
2022/01/18 13:13:10;;;;;;;0.70;0.70;;;12.90;76.90;;;;;;918257;152;27454;-79
2022/01/18 13:15:39;;;;;;;0.90;0.90;;;12.90;76.70;;;;;;917039;155;27758;-79
2022/01/18 13:23:50;;;;;;;0.53;0.53;;;12.90;76.40;;;;;;898311;159;27384;-79
2022/01/18 13:26:02;;;;;;;1.20;0.97;;;12.90;76.40;;;;;;896022;159;27523;-79
2022/01/18 13:28:34;;;;;;;1.00;0.77;;;12.90;76.20;;;;;;900167;159;27423;-79
2022/01/18 13:31:19;;;;;;;1.10;0.80;;;12.90;76.00;;;;;;901633;158;27449;-79
2022/01/18 13:33:57;;;;;;;1.13;0.80;;;12.80;75.90;;;;;;902005;158;27348;-79
2022/01/18 13:36:23;;;;;;;1.07;1.00;;;12.80;76.00;;;;;;901835;154;27342;-79
2022/01/18 13:38:50;;;;;;;0.70;0.70;;;12.80;76.00;;;;;;920515;152;27386;-78
2022/01/18 13:41:20;;;;;;;0.77;0.77;;;12.80;75.90;;;;;;918308;154;27354;-79
2022/01/18 13:43:47;;;;;;;0.90;0.90;;;12.70;75.70;;;;;;887924;161;27339;-78
2022/01/18 13:46:13;;;;;;;1.17;1.07;;;12.70;75.60;;;;;;887571;161;27411;-78
2022/01/18 13:48:39;;;;;;;1.13;1.00;;;12.70;75.40;;;;;;916690;154;27359;-79
2022/01/18 13:51:11;;;;;;;0.87;0.87;;;12.60;75.20;;;;;;919856;155;27451;-79
2022/01/18 13:53:36;;;;;;;0.80;0.77;;;12.60;75.10;;;;;;917873;152;27385;-79
2022/01/18 13:56:11;;;;;;;1.20;1.13;;;12.60;75.20;;;;;;916951;155;27462;-79
2022/01/18 13:58:39;;;;;;;1.47;1.37;;;12.50;75.10;;;;;;917312;155;27335;-78
2022/01/18 14:01:11;;;;;;;2.00;1.67;;;12.50;75.20;;;;;;917893;154;27388;-78
2022/01/18 14:03:37;;;;;;;4.47;0.97;;;12.50;75.30;;;;;;916760;155;27323;-79
2022/01/18 14:06:04;;;;;;;0.63;0.60;;;12.40;75.30;;;;;;916712;154;27904;-79
2022/01/18 14:08:33;;;;;;;0.93;0.83;;;12.40;74.60;;;;;;917539;152;27357;-79
2022/01/18 14:11:02;;;;;;;1.03;1.03;;;12.40;75.30;;;;;;917936;154;27508;-79
2022/01/18 14:13:36;;;;;;;1.93;1.53;;;12.40;75.30;;;;;;919506;154;27511;-79